Time;durP1;ratioP1;P1;durP2;ratioP2;P2;SDS_P1;SDS_P2;PMS_P1;PMS_P2;Temp;Humidity;BMP_temperature;BMP_pressure;BME280_temperature;BME280_humidity;BME280_pressure;Samples;Min_cycle;Max_cycle;Signal;HPM_P1;HPM_P2
2023/08/08 00:01:14;;;;;;;5.20;3.10;;;;;;;-141.97;52.54;47157.75;5044562;28;20197;-83
2023/08/08 00:03:40;;;;;;;4.53;3.33;;;;;;;-141.97;52.54;47496.00;5062574;28;20219;-83
2023/08/08 00:06:05;;;;;;;4.90;3.20;;;;;;;-141.97;52.70;47346.09;5064297;28;20165;-84
2023/08/08 00:08:31;;;;;;;3.87;3.00;;;;;;;-141.97;52.78;47361.47;5064363;28;20165;-83
2023/08/08 00:10:56;;;;;;;4.17;3.00;;;;;;;-141.97;52.82;47403.75;5065582;28;20161;-83
2023/08/08 00:13:22;;;;;;;4.13;2.90;;;;;;;-141.97;53.42;47374.94;5068304;28;20279;-85
2023/08/08 00:15:48;;;;;;;4.37;2.80;;;;;;;-141.97;53.81;47384.53;5060250;28;20551;-83
2023/08/08 00:18:13;;;;;;;5.20;2.80;;;;;;;-141.97;53.99;47413.38;5054155;28;20177;-83
2023/08/08 00:20:39;;;;;;;5.00;2.83;;;;;;;-141.97;54.14;47349.94;5060036;28;20647;-84
2023/08/08 00:23:05;;;;;;;3.67;2.70;;;;;;;-141.97;53.93;47396.06;5073405;28;20644;-83
2023/08/08 00:25:30;;;;;;;5.03;2.77;;;;;;;-141.97;54.18;47580.59;5089000;28;20171;-82
2023/08/08 00:27:55;;;;;;;6.03;2.80;;;;;;;-141.97;54.65;47444.13;5105751;28;20191;-83
2023/08/08 00:30:21;;;;;;;2.67;2.20;;;;;;;-141.97;55.13;47434.50;5075001;28;20330;-84
2023/08/08 00:32:46;;;;;;;3.40;2.70;;;;;;;-141.97;55.08;47426.81;5079199;28;20167;-85
2023/08/08 00:35:12;;;;;;;4.27;2.60;;;;;;;-141.97;55.92;47586.34;5078443;28;20541;-84
2023/08/08 00:37:37;;;;;;;4.87;2.40;;;;;;;-141.97;56.74;47419.13;5048031;28;20235;-85
2023/08/08 00:40:03;;;;;;;3.10;2.30;;;;;;;-141.97;57.08;47415.28;5061315;28;20161;-84
2023/08/08 00:42:28;;;;;;;3.40;2.27;;;;;;;-141.97;57.46;47303.81;5069320;28;20256;-83
2023/08/08 00:44:54;;;;;;;3.33;2.30;;;;;;;-141.97;57.40;47307.66;5065964;28;20173;-84
2023/08/08 00:47:20;;;;;;;3.37;2.50;;;;;;;-141.97;57.05;47361.47;5049877;28;20188;-84
2023/08/08 00:49:48;;;;;;;2.80;2.40;;;;;;;-141.97;56.98;47434.50;5050515;28;20184;-83
2023/08/08 00:52:14;;;;;;;3.53;2.47;;;;;;;-141.97;56.89;47336.50;5069904;28;20244;-83
2023/08/08 00:54:40;;;;;;;2.90;2.30;;;;;;;-141.97;56.83;47422.97;5061366;28;20295;-82
2023/08/08 00:57:06;;;;;;;2.77;2.30;;;;;;;-141.97;57.10;47253.84;5050247;28;20261;-83
2023/08/08 00:59:32;;;;;;;2.97;2.40;;;;;;;-141.97;56.85;47349.94;5050166;28;20208;-84
2023/08/08 01:01:57;;;;;;;3.07;2.30;;;;;;;-141.97;57.32;47469.09;5032054;28;20558;-83
2023/08/08 01:04:26;;;;;;;2.97;1.90;;;;;;;-141.97;57.90;47521.00;5050096;28;20578;-83
2023/08/08 01:06:58;;;;;;;2.00;1.80;;;;;;;-141.97;58.18;47386.47;5049478;28;20164;-83
2023/08/08 01:10:04;;;;;;;2.73;1.70;;;;;;;-141.97;57.95;47403.75;5049628;28;20169;-83
2023/08/08 01:12:30;;;;;;;2.07;1.77;;;;;;;-141.97;58.60;47599.81;4988359;28;20197;-83
2023/08/08 01:14:56;;;;;;;2.33;1.90;;;;;;;-141.97;58.61;47399.91;4988285;28;20205;-83
2023/08/08 01:17:24;;;;;;;2.03;1.70;;;;;;;-141.97;58.66;47392.22;4988060;28;20195;-83
2023/08/08 01:19:50;;;;;;;3.23;1.70;;;;;;;-141.97;58.53;47438.34;4988247;28;20270;-83
2023/08/08 01:22:27;;;;;;;2.63;1.90;;;;;;;-141.97;58.78;47386.47;4988006;28;20558;-84
2023/08/08 01:24:54;;;;;;;2.63;1.70;;;;;;;-141.97;58.13;47428.75;4988261;28;20321;-83
2023/08/08 01:27:19;;;;;;;1.50;1.40;;;;;;;-141.97;58.65;47259.63;4987700;28;20179;-83
2023/08/08 01:29:45;;;;;;;1.77;1.40;;;;;;;-141.97;58.36;47384.53;4990857;28;20206;-83
2023/08/08 01:32:11;;;;;;;1.60;1.50;;;;;;;-141.97;58.00;47255.78;4990048;28;20175;-83
2023/08/08 01:34:37;;;;;;;1.80;1.27;;;;;;;-141.97;57.95;47424.91;4988064;28;20609;-83
2023/08/08 01:37:15;;;;;;;1.40;1.30;;;;;;;-141.97;58.53;47426.81;4984175;28;20283;-83
2023/08/08 01:39:42;;;;;;;2.33;1.33;;;;;;;-141.97;58.79;47342.25;4971377;28;20284;-82
2023/08/08 01:42:07;;;;;;;1.87;1.13;;;;;;;-141.97;59.00;47388.38;4987901;28;20706;-82
2023/08/08 01:44:34;;;;;;;1.40;1.30;;;;;;;-141.97;59.11;47413.38;4987739;28;20274;-83
2023/08/08 01:47:00;;;;;;;2.10;1.33;;;;;;;-141.97;59.25;47394.16;4988618;28;20333;-82
2023/08/08 01:49:26;;;;;;;2.00;1.10;;;;;;;-141.97;59.37;47405.69;5048612;28;20185;-83
2023/08/08 01:51:52;;;;;;;1.47;1.10;;;;;;;-141.97;59.14;47451.81;5053235;28;20212;-81
2023/08/08 01:54:18;;;;;;;1.80;1.30;;;;;;;-141.97;59.34;47438.34;5035274;28;20723;-82
2023/08/08 01:56:43;;;;;;;2.97;1.40;;;;;;;-141.97;60.21;47434.50;5052411;28;20512;-82
2023/08/08 01:59:10;;;;;;;1.30;1.20;;;;;;;-141.97;60.70;47422.97;5052282;28;20581;-83
2023/08/08 02:01:35;;;;;;;1.70;1.30;;;;;;;-141.97;60.69;47426.81;5052295;28;20177;-83
2023/08/08 02:04:02;;;;;;;1.57;1.30;;;;;;;-141.97;61.10;47388.38;5034319;28;20170;-83
2023/08/08 02:06:27;;;;;;;1.40;1.20;;;;;;;-141.97;60.96;47361.47;5052429;28;20158;-84
2023/08/08 02:08:52;;;;;;;1.77;1.13;;;;;;;-141.97;60.82;47388.38;5052062;28;20255;-84
2023/08/08 02:11:18;;;;;;;1.93;1.30;;;;;;;-141.97;61.36;47330.72;5051965;28;20192;-84
2023/08/08 02:13:43;;;;;;;2.67;1.40;;;;;;;-141.97;61.23;47403.75;5052608;28;20176;-84
2023/08/08 02:16:08;;;;;;;3.93;1.30;;;;;;;-141.97;61.78;47403.75;5034705;28;20288;-83
2023/08/08 02:18:34;;;;;;;1.50;1.33;;;;;;;-141.97;61.97;47305.75;5052458;28;20177;-84
2023/08/08 02:20:59;;;;;;;1.77;1.20;;;;;;;-141.97;62.61;47430.66;5034836;28;20176;-84
2023/08/08 02:23:26;;;;;;;1.90;1.50;;;;;;;-141.97;62.23;47411.44;5052379;28;20252;-84
2023/08/08 02:25:51;;;;;;;1.90;1.40;;;;;;;-141.97;61.65;47551.75;5052478;28;20153;-84
2023/08/08 02:28:17;;;;;;;1.73;1.27;;;;;;;-141.97;61.77;47344.19;5051820;28;20168;-82
2023/08/08 02:30:42;;;;;;;1.50;1.40;;;;;;;-141.97;62.88;47396.06;5052571;28;20656;-84
2023/08/08 02:33:07;;;;;;;1.80;1.30;;;;;;;-141.97;62.81;47409.53;5052883;28;20226;-82
2023/08/08 02:35:33;;;;;;;1.73;1.40;;;;;;;-141.97;62.75;47455.66;5034261;28;20586;-82
2023/08/08 02:37:58;;;;;;;1.60;1.40;;;;;;;-141.97;63.03;47449.88;5036671;28;20252;-82
2023/08/08 02:40:24;;;;;;;4.30;1.67;;;;;;;-141.97;63.18;47326.88;5054171;28;20189;-82
2023/08/08 02:42:50;;;;;;;2.80;1.60;;;;;;;-141.97;63.15;47565.22;5072222;28;20268;-82
2023/08/08 02:45:15;;;;;;;2.67;1.90;;;;;;;-141.97;63.96;47471.03;5072524;28;20184;-82
2023/08/08 02:47:41;;;;;;;2.40;2.10;;;;;;;-141.97;63.81;47455.66;5072982;28;20175;-82
2023/08/08 02:50:07;;;;;;;2.30;2.00;;;;;;;-141.97;63.84;47426.81;5107560;28;20180;-80
2023/08/08 02:52:32;;;;;;;3.17;2.40;;;;;;;-141.97;64.24;47472.94;5084202;28;20181;-81
2023/08/08 02:54:57;;;;;;;2.13;1.87;;;;;;;-141.97;65.00;47444.13;5060041;28;20327;-81
2023/08/08 02:57:23;;;;;;;2.20;1.90;;;;;;;-141.97;65.37;47453.72;5071210;28;20245;-82
2023/08/08 02:59:48;;;;;;;1.90;1.60;;;;;;;-141.97;65.56;47465.25;5070892;28;20164;-82
2023/08/08 03:02:13;;;;;;;2.43;1.87;;;;;;;-141.97;65.47;47438.34;5071919;28;20224;-84
2023/08/08 03:04:39;;;;;;;2.23;1.80;;;;;;;-141.97;65.64;47449.88;5072616;28;20222;-81
2023/08/08 03:07:04;;;;;;;3.43;1.87;;;;;;;-141.97;65.40;47444.13;5072950;28;20213;-82
2023/08/08 03:09:30;;;;;;;3.77;2.00;;;;;;;-141.97;65.91;47432.59;5080326;28;20612;-82
2023/08/08 03:11:55;;;;;;;4.57;2.10;;;;;;;-141.97;66.44;47446.03;5081212;28;20228;-82
2023/08/08 03:14:21;;;;;;;2.77;2.00;;;;;;;-141.97;67.23;47380.69;5069123;28;20174;-82
2023/08/08 03:16:46;;;;;;;2.77;2.13;;;;;;;-141.97;67.91;47449.88;5057085;28;20176;-82
2023/08/08 03:19:12;;;;;;;2.43;1.70;;;;;;;-141.97;68.42;47342.25;5035495;28;20257;-82
2023/08/08 03:21:37;;;;;;;3.13;1.93;;;;;;;-141.97;68.68;47430.66;5051870;28;20590;-81
2023/08/08 03:24:03;;;;;;;1.70;1.60;;;;;;;-141.97;69.87;47392.22;5051510;28;20248;-81
2023/08/08 03:26:28;;;;;;;2.30;1.80;;;;;;;-141.97;70.07;47584.44;5033268;28;20169;-81
2023/08/08 03:28:54;;;;;;;2.63;1.90;;;;;;;-141.97;69.80;47463.34;5051348;28;20653;-82
2023/08/08 03:31:20;;;;;;;1.90;1.70;;;;;;;-141.97;70.30;47472.94;5051100;28;20185;-82
2023/08/08 03:33:46;;;;;;;2.23;1.80;;;;;;;-141.97;70.44;47457.56;5032608;28;20187;-82
2023/08/08 03:36:11;;;;;;;3.00;1.60;;;;;;;-141.97;70.40;47430.66;5033404;28;20661;-82
2023/08/08 03:38:37;;;;;;;3.97;1.73;;;;;;;-141.97;70.96;47415.28;5050558;28;20831;-82
2023/08/08 03:41:03;;;;;;;2.37;1.80;;;;;;;-141.97;73.11;47474.88;5034293;28;20186;-83
2023/08/08 03:43:31;;;;;;;3.80;2.10;;;;;;;-141.97;77.45;47442.19;5032173;28;20158;-83
2023/08/08 03:45:57;;;;;;;3.07;2.00;;;;;;;-141.97;80.11;47434.50;5054106;28;20169;-83
2023/08/08 03:48:22;;;;;;;4.27;2.13;;;;;;;-141.97;82.16;47317.28;5058430;28;20192;-83
2023/08/08 03:50:48;;;;;;;3.20;2.10;;;;;;;-141.97;82.46;47642.09;5051539;28;20617;-83
2023/08/08 03:53:13;;;;;;;3.70;2.43;;;;;;;-141.97;83.04;47449.88;5055716;28;20165;-83
2023/08/08 03:55:39;;;;;;;3.33;2.20;;;;;;;-141.97;83.22;47465.25;5055104;28;20295;-82
2023/08/08 03:58:05;;;;;;;2.97;1.87;;;;;;;-141.97;82.24;47540.22;5050522;28;20184;-83
2023/08/08 04:00:31;;;;;;;1.73;1.50;;;;;;;-141.97;80.93;47382.63;5065170;28;20173;-83
2023/08/08 04:02:56;;;;;;;5.50;1.83;;;;;;;-141.97;79.56;47453.72;5049652;28;20633;-83
2023/08/08 04:05:21;;;;;;;2.00;1.70;;;;;;;-141.97;79.11;47369.16;5065036;28;20256;-82
2023/08/08 04:07:47;;;;;;;3.83;1.90;;;;;;;-141.97;78.77;47619.03;5064980;28;20180;-83
2023/08/08 04:10:13;;;;;;;2.43;1.93;;;;;;;-141.97;78.49;47490.25;5031896;28;20173;-82
2023/08/08 04:12:38;;;;;;;2.97;1.80;;;;;;;-141.97;78.50;47288.44;5032480;28;20223;-82
2023/08/08 04:15:04;;;;;;;2.57;2.10;;;;;;;-141.97;79.07;47471.03;5068021;28;20302;-83
2023/08/08 04:17:30;;;;;;;2.77;1.80;;;;;;;-141.97;80.35;47471.03;5052252;28;20169;-82
2023/08/08 04:19:55;;;;;;;3.27;2.03;;;;;;;-141.97;82.88;47432.59;5052411;28;20550;-83
2023/08/08 04:22:20;;;;;;;5.63;2.30;;;;;;;-141.97;86.11;47480.63;5079244;28;20149;-85
2023/08/08 04:24:46;;;;;;;4.00;2.00;;;;;;;-141.97;90.44;47396.06;5099028;28;20236;-85
2023/08/08 04:27:11;;;;;;;7.17;2.90;;;;;;;-141.97;94.29;47603.66;5054018;28;20640;-83
2023/08/08 04:29:37;;;;;;;4.30;2.60;;;;;;;-141.97;96.53;47490.25;5070349;28;20179;-83
2023/08/08 04:32:02;;;;;;;6.37;3.00;;;;;;;-141.97;98.25;47232.72;5053127;28;20277;-83
2023/08/08 04:34:28;;;;;;;4.83;3.07;;;;;;;-141.97;98.91;47332.66;5056903;28;20177;-82
2023/08/08 04:36:53;;;;;;;3.73;3.00;;;;;;;-141.97;99.84;47461.41;5069988;28;20188;-82
2023/08/08 04:39:18;;;;;;;3.80;3.10;;;;;;;-141.97;99.47;47447.97;5070049;28;20696;-83
2023/08/08 04:41:44;;;;;;;3.93;3.17;;;;;;;-141.97;100.00;47478.72;5070056;28;20173;-79
2023/08/08 04:44:09;;;;;;;4.83;3.00;;;;;;;-141.97;100.00;47471.03;5069288;28;20241;-79
2023/08/08 04:46:34;;;;;;;5.83;2.93;;;;;;;-141.97;100.00;47461.41;5069828;28;20176;-79
2023/08/08 04:49:00;;;;;;;6.50;3.60;;;;;;;-141.97;100.00;47499.84;5078450;28;20214;-79
2023/08/08 04:51:25;;;;;;;5.07;3.80;;;;;;;-141.97;100.00;47476.78;5052457;28;20535;-79
2023/08/08 04:53:50;;;;;;;7.33;4.10;;;;;;;-141.97;100.00;47490.25;5069033;28;20188;-78
2023/08/08 04:56:16;;;;;;;6.23;4.03;;;;;;;-141.97;100.00;47484.47;5070092;28;20195;-79
2023/08/08 04:58:41;;;;;;;5.10;3.93;;;;;;;-141.97;100.00;47507.53;5074329;28;20152;-78
2023/08/08 05:01:11;;;;;;;6.23;3.80;;;;;;;-141.97;100.00;47472.94;5069302;28;20498;-79
2023/08/08 05:03:36;;;;;;;6.63;3.70;;;;;;;-141.97;100.00;47496.00;5069126;28;20238;-81
2023/08/08 05:06:02;;;;;;;5.47;3.80;;;;;;;-141.97;100.00;47484.47;5069424;28;20573;-82
2023/08/08 05:08:28;;;;;;;6.03;3.73;;;;;;;-141.97;100.00;47640.16;5069564;28;20165;-84
2023/08/08 05:10:53;;;;;;;6.53;4.40;;;;;;;-141.97;100.00;47492.16;5051902;28;20237;-81
2023/08/08 05:13:19;;;;;;;7.30;4.13;;;;;;;-141.97;100.00;47474.88;5074084;28;20171;-82
2023/08/08 05:15:44;;;;;;;5.37;3.90;;;;;;;-141.97;100.00;47630.56;5083543;28;20250;-81
2023/08/08 05:18:10;;;;;;;7.07;4.50;;;;;;;-141.97;100.00;47459.50;5074343;28;20179;-86
2023/08/08 05:20:35;;;;;;;7.00;4.30;;;;;;;-141.97;100.00;47486.41;5066750;28;20246;-80
2023/08/08 05:23:00;;;;;;;7.53;4.20;;;;;;;-141.97;100.00;47511.38;5053832;28;20267;-81
2023/08/08 05:25:26;;;;;;;9.43;3.90;;;;;;;-141.97;100.00;47478.72;5073067;28;20247;-82
2023/08/08 05:27:53;;;;;;;7.77;4.27;;;;;;;-141.97;100.00;47453.72;5073747;28;20509;-82
2023/08/08 05:30:18;;;;;;;9.30;5.13;;;;;;;-141.97;100.00;47501.78;5070648;28;20256;-82
2023/08/08 05:32:44;;;;;;;10.90;5.00;;;;;;;-141.97;100.00;47407.59;5034851;28;20260;-82
2023/08/08 05:35:10;;;;;;;5.77;4.23;;;;;;;-141.97;99.70;47484.47;5035767;28;20189;-86
2023/08/08 05:37:35;;;;;;;9.03;4.63;;;;;;;-141.97;100.00;47647.84;5053422;28;20170;-86
2023/08/08 05:40:00;;;;;;;5.20;4.20;;;;;;;-141.97;100.00;47432.59;5035429;28;20246;-87
2023/08/08 05:42:26;;;;;;;5.67;4.43;;;;;;;-141.97;100.00;47499.84;5053546;28;20225;-85
2023/08/08 05:44:51;;;;;;;7.57;4.93;;;;;;;-141.97;100.00;47632.47;5061692;28;20156;-85
2023/08/08 05:47:17;;;;;;;5.97;3.80;;;;;;;-141.97;100.00;47536.38;5063085;28;20228;-86
2023/08/08 05:49:42;;;;;;;6.60;4.47;;;;;;;-141.97;100.00;47436.44;5076316;28;20212;-86
2023/08/08 05:52:08;;;;;;;9.43;4.77;;;;;;;-141.97;100.00;47499.84;5073179;28;20588;-86
2023/08/08 05:54:33;;;;;;;6.33;4.90;;;;;;;-141.97;100.00;47519.06;5073092;28;20179;-84
2023/08/08 05:56:59;;;;;;;6.57;4.80;;;;;;;-141.97;100.00;47534.44;5074148;28;20177;-84
2023/08/08 05:59:24;;;;;;;5.37;4.60;;;;;;;-141.97;100.00;47432.59;5073461;28;20562;-85
2023/08/08 06:01:50;;;;;;;7.53;4.50;;;;;;;-141.97;100.00;47653.63;5088480;28;20319;-84
2023/08/08 06:04:15;;;;;;;6.10;4.77;;;;;;;-141.97;100.00;47476.78;5072511;28;20255;-84
2023/08/08 06:06:41;;;;;;;7.00;5.03;;;;;;;-141.97;100.00;47505.63;5072567;28;20177;-83
2023/08/08 06:09:08;;;;;;;6.90;5.40;;;;;;;-141.97;100.00;47513.31;5072932;28;20177;-84
2023/08/08 06:11:34;;;;;;;7.63;5.63;;;;;;;-141.97;100.00;47603.66;5072737;28;20184;-83
2023/08/08 06:13:59;;;;;;;6.57;5.07;;;;;;;-141.97;100.00;47503.69;5063794;28;20236;-82
2023/08/08 06:16:25;;;;;;;7.53;5.07;;;;;;;-141.97;98.71;47530.59;5072671;28;20580;-82
2023/08/08 06:18:52;;;;;;;7.33;5.03;;;;;;;-141.97;97.45;47446.03;5072881;28;20184;-83
2023/08/08 06:21:17;;;;;;;8.43;5.30;;;;;;;-141.97;97.44;47376.84;5059610;28;20193;-84
2023/08/08 06:23:43;;;;;;;6.40;4.83;;;;;;;-141.97;97.18;47499.84;5056940;28;20242;-85
2023/08/08 06:26:09;;;;;;;6.27;5.10;;;;;;;-141.97;96.03;47532.53;5078184;28;20188;-85
2023/08/08 06:28:34;;;;;;;7.20;5.77;;;;;;;-141.97;95.81;47463.34;5079376;28;20188;-85
2023/08/08 06:31:01;;;;;;;6.43;5.47;;;;;;;-141.97;95.38;47536.38;5070041;28;20181;-86
2023/08/08 06:33:26;;;;;;;7.07;6.03;;;;;;;-141.97;95.80;47638.25;5059999;28;20252;-86
2023/08/08 06:35:52;;;;;;;6.63;5.90;;;;;;;-141.97;95.13;47665.16;5074529;28;20745;-86
2023/08/08 06:38:17;;;;;;;6.53;5.83;;;;;;;-141.97;94.22;47480.63;5053989;28;20221;-86
2023/08/08 06:40:43;;;;;;;8.00;5.80;;;;;;;-141.97;92.17;47494.09;5039590;28;20231;-85
2023/08/08 06:43:08;;;;;;;7.03;5.97;;;;;;;-141.97;92.46;47519.06;5055654;28;20965;-85
2023/08/08 06:45:34;;;;;;;8.43;5.80;;;;;;;-141.97;92.25;47557.53;5054867;28;20657;-85
2023/08/08 06:47:59;;;;;;;7.87;5.90;;;;;;;-141.97;91.82;47378.78;5058758;28;20175;-87
2023/08/08 06:50:25;;;;;;;6.00;5.40;;;;;;;-141.97;89.89;47269.22;5035675;28;20212;-86
2023/08/08 06:52:51;;;;;;;7.47;5.40;;;;;;;-141.97;88.28;47469.09;5053810;28;20169;-85
2023/08/08 06:55:16;;;;;;;7.27;5.47;;;;;;;-141.97;85.55;47496.00;5052339;28;20193;-85
2023/08/08 06:57:42;;;;;;;7.07;5.60;;;;;;;-141.97;83.01;47392.22;5053162;28;20208;-86
2023/08/08 07:00:08;;;;;;;7.13;5.10;;;;;;;-141.97;81.55;47453.72;5053505;28;20154;-85
2023/08/08 07:02:34;;;;;;;5.53;5.00;;;;;;;-141.97;79.67;47630.56;5052800;28;20158;-86
2023/08/08 07:05:00;;;;;;;5.90;5.30;;;;;;;-141.97;79.08;47453.72;5053132;28;20181;-85
2023/08/08 07:07:25;;;;;;;5.57;4.90;;;;;;;-141.97;78.68;47484.47;5052807;28;20196;-84
2023/08/08 07:09:51;;;;;;;5.37;4.87;;;;;;;-141.97;75.85;47486.41;5052525;28;20259;-85
2023/08/08 07:12:16;;;;;;;6.17;4.73;;;;;;;-141.97;75.59;47499.84;5034715;28;20821;-86
2023/08/08 07:14:41;;;;;;;4.90;4.40;;;;;;;-141.97;72.78;47469.09;5043322;28;20702;-85
2023/08/08 07:17:07;;;;;;;6.63;5.20;;;;;;;-141.97;73.50;47474.88;5052739;28;20571;-87
2023/08/08 07:19:32;;;;;;;5.40;4.90;;;;;;;-141.97;73.87;47434.50;5052625;28;20533;-86
2023/08/08 07:21:58;;;;;;;5.40;4.90;;;;;;;-141.97;74.07;47692.06;5053395;28;20166;-86
2023/08/08 07:24:28;;;;;;;5.70;4.60;;;;;;;-141.97;73.94;47615.19;5052650;28;20189;-86
2023/08/08 07:26:55;;;;;;;5.53;4.90;;;;;;;-141.97;74.98;47480.63;5055821;28;20199;-87
2023/08/08 07:29:21;;;;;;;6.33;5.33;;;;;;;-141.97;75.15;47488.31;5056330;28;20154;-86
2023/08/08 07:31:46;;;;;;;6.37;5.17;;;;;;;-141.97;73.25;47476.78;5043222;28;20326;-87
2023/08/08 07:34:11;;;;;;;5.63;4.90;;;;;;;-141.97;70.27;47469.09;5038813;28;20224;-86
2023/08/08 07:36:37;;;;;;;5.13;4.03;;;;;;;-141.97;67.17;47326.88;5040069;28;20210;-86
2023/08/08 07:39:02;;;;;;;4.60;4.20;;;;;;;-141.97;68.10;47496.00;5071473;28;20220;-85
2023/08/08 07:41:30;;;;;;;4.33;3.73;;;;;;;-141.97;67.29;47457.56;5085137;28;20160;-87
2023/08/08 07:43:55;;;;;;;5.43;4.27;;;;;;;-141.97;68.94;47472.94;5072128;28;20184;-85
2023/08/08 07:46:20;;;;;;;4.20;3.80;;;;;;;-141.97;67.84;47355.72;5073133;28;20179;-86
2023/08/08 07:48:46;;;;;;;4.40;4.00;;;;;;;-141.97;69.64;47407.59;5074989;28;20157;-85
2023/08/08 07:51:11;;;;;;;4.40;4.00;;;;;;;-141.97;69.86;47630.56;5054168;28;20172;-85
2023/08/08 07:53:37;;;;;;;6.23;4.37;;;;;;;-141.97;70.28;47380.69;5073046;28;20215;-84
2023/08/08 07:56:02;;;;;;;6.00;4.10;;;;;;;-141.97;69.11;47469.09;5072792;28;20550;-86
2023/08/08 07:58:27;;;;;;;4.57;3.87;;;;;;;-141.97;68.88;47394.16;5073053;28;20174;-86
2023/08/08 08:00:53;;;;;;;4.17;3.73;;;;;;;-141.97;68.57;47509.47;5072004;28;20165;-84
2023/08/08 08:03:20;;;;;;;4.10;3.70;;;;;;;-141.97;67.50;47592.13;5071310;28;20233;-85
2023/08/08 08:05:48;;;;;;;3.83;3.43;;;;;;;-141.97;67.28;47459.50;5052339;28;20661;-84
2023/08/08 08:08:14;;;;;;;5.03;3.80;;;;;;;-141.97;66.55;47484.47;5054140;28;20244;-83
2023/08/08 08:10:39;;;;;;;5.50;3.60;;;;;;;-141.97;65.82;47509.47;5052240;28;20606;-85
2023/08/08 08:13:05;;;;;;;4.37;3.60;;;;;;;-141.97;65.64;47453.72;5043088;28;20178;-85
2023/08/08 08:15:30;;;;;;;4.07;3.43;;;;;;;-141.97;65.92;47369.16;5048921;28;20747;-86
2023/08/08 08:17:56;;;;;;;3.77;3.47;;;;;;;-141.97;64.34;47422.97;5070528;28;20168;-85
2023/08/08 08:20:21;;;;;;;3.60;3.30;;;;;;;-141.97;64.75;47413.38;5070245;28;20200;-86
2023/08/08 08:22:47;;;;;;;4.17;3.30;;;;;;;-141.97;63.73;47446.03;5070822;28;20160;-86
2023/08/08 08:25:14;;;;;;;4.97;3.60;;;;;;;-141.97;64.65;47392.22;5052389;28;20596;-85
2023/08/08 08:27:40;;;;;;;4.17;3.60;;;;;;;-141.97;64.54;47496.00;5069621;28;20169;-86
2023/08/08 08:30:06;;;;;;;4.03;3.10;;;;;;;-141.97;64.10;47488.31;5068573;28;20161;-84
2023/08/08 08:32:34;;;;;;;3.93;3.50;;;;;;;-141.97;65.24;47453.72;5049453;28;20271;-85
2023/08/08 08:35:03;;;;;;;4.97;3.57;;;;;;;-141.97;64.71;47449.88;5053561;28;20201;-84
2023/08/08 08:37:30;;;;;;;5.53;3.40;;;;;;;-141.97;63.42;47484.47;5070077;28;20243;-85
2023/08/08 08:39:55;;;;;;;5.57;3.70;;;;;;;-141.97;63.24;47478.72;5051341;28;20335;-85
2023/08/08 08:42:22;;;;;;;3.70;3.40;;;;;;;-141.97;61.70;47426.81;5054593;28;20544;-86
2023/08/08 08:44:49;;;;;;;4.37;3.30;;;;;;;-141.97;61.96;47484.47;5050144;28;20256;-85
2023/08/08 08:47:17;;;;;;;3.73;3.43;;;;;;;-141.97;61.33;47472.94;5036071;28;20725;-84
2023/08/08 08:49:45;;;;;;;3.87;3.37;;;;;;;-141.97;61.10;47378.78;5053916;28;20187;-85
2023/08/08 08:52:12;;;;;;;3.53;3.23;;;;;;;-141.97;61.10;47394.16;5068528;28;20183;-86
2023/08/08 08:54:38;;;;;;;4.77;3.20;;;;;;;-141.97;59.90;47461.41;5069840;28;20221;-86
2023/08/08 08:57:03;;;;;;;4.70;3.40;;;;;;;-141.97;58.75;47561.38;5068059;28;20228;-85
2023/08/08 08:59:29;;;;;;;4.83;3.67;;;;;;;-141.97;57.40;47482.56;5049542;28;20616;-85
2023/08/08 09:01:56;;;;;;;4.27;3.20;;;;;;;-141.97;55.81;47253.84;5045387;28;20172;-86
2023/08/08 09:04:21;;;;;;;3.30;3.00;;;;;;;-141.97;56.31;47438.34;5070110;28;20206;-86
2023/08/08 09:06:48;;;;;;;3.50;3.00;;;;;;;-141.97;54.57;47411.44;5085583;28;20156;-84
2023/08/08 09:09:15;;;;;;;2.93;2.73;;;;;;;-141.97;53.88;47465.25;5071206;28;20184;-86
2023/08/08 09:11:46;;;;;;;5.10;3.40;;;;;;;-141.97;53.82;47422.97;5050049;28;20305;-84
2023/08/08 09:14:19;;;;;;;2.40;2.17;;;;;;;-141.97;50.78;47553.69;5079682;28;20169;-85
2023/08/08 09:16:45;;;;;;;2.67;2.20;;;;;;;-141.97;50.55;47326.88;5069617;28;20221;-86
2023/08/08 09:19:11;;;;;;;3.63;2.50;;;;;;;-141.97;49.31;47630.56;5074018;28;20655;-85
2023/08/08 09:21:37;;;;;;;3.40;2.23;;;;;;;-141.97;48.70;47396.06;5073942;28;20215;-84
2023/08/08 09:24:03;;;;;;;2.77;2.50;;;;;;;-141.97;48.75;47526.75;5075474;28;20161;-86
2023/08/08 09:26:28;;;;;;;3.20;2.33;;;;;;;-141.97;48.55;47432.59;5075065;28;20154;-85
2023/08/08 09:28:54;;;;;;;3.47;2.23;;;;;;;-141.97;46.79;47351.88;5075204;28;20593;-86
2023/08/08 09:31:19;;;;;;;7.83;2.50;;;;;;;-141.97;47.03;47444.13;5074266;28;20228;-86
2023/08/08 09:33:48;;;;;;;5.47;2.90;;;;;;;-141.97;47.37;47651.69;5062434;28;20237;-84
2023/08/08 09:36:15;;;;;;;3.90;2.37;;;;;;;-141.97;46.24;47373.00;5045946;28;20216;-86
2023/08/08 09:38:41;;;;;;;3.07;2.37;;;;;;;-141.97;45.84;47426.81;5052600;28;20777;-84
2023/08/08 09:41:06;;;;;;;4.10;2.30;;;;;;;-141.97;43.69;47226.94;5037005;28;20284;-86
2023/08/08 09:43:32;;;;;;;3.40;2.53;;;;;;;-141.97;45.33;47276.91;5029353;28;20162;-86
2023/08/08 09:45:58;;;;;;;2.40;2.20;;;;;;;-141.97;45.49;47403.75;5030587;28;20173;-84
2023/08/08 09:48:31;;;;;;;3.50;2.80;;;;;;;-141.97;45.99;47411.44;5034121;28;20253;-85
2023/08/08 09:50:59;;;;;;;2.63;2.40;;;;;;;-141.97;45.80;47238.47;5029545;28;20224;-83
2023/08/08 09:53:27;;;;;;;2.53;2.00;;;;;;;-141.97;45.63;47438.34;5028947;28;20252;-84
2023/08/08 09:55:54;;;;;;;2.53;2.07;;;;;;;-141.97;44.29;47542.16;5029181;28;20205;-84
2023/08/08 09:58:20;;;;;;;2.10;1.90;;;;;;;-141.97;43.53;47386.47;5039693;28;20186;-83
2023/08/08 10:00:46;;;;;;;2.43;2.07;;;;;;;-141.97;43.48;47415.28;5028255;28;20193;-82
2023/08/08 10:03:11;;;;;;;3.17;2.30;;;;;;;-141.97;42.91;47595.97;5031450;28;20185;-83
2023/08/08 10:05:38;;;;;;;1.97;1.87;;;;;;;-141.97;42.20;47565.22;5030091;28;20573;-84
2023/08/08 10:08:04;;;;;;;3.67;1.90;;;;;;;-141.97;41.42;47296.13;5032859;28;20172;-85
2023/08/08 10:10:30;;;;;;;3.05;1.98;;;;;;;-141.97;38.88;47369.16;5035764;28;20163;-83
2023/08/08 10:12:56;;;;;;;2.63;1.90;;;;;;;-141.97;40.66;47376.84;5036188;28;20190;-82
2023/08/08 10:15:26;;;;;;;1.70;1.60;;;;;;;-141.97;40.82;47334.56;5023662;28;20234;-85
2023/08/08 10:17:55;;;;;;;4.82;2.22;;;;;;;-141.97;40.38;47384.53;5045769;28;20655;-84
2023/08/08 10:20:21;;;;;;;2.00;1.90;;;;;;;-141.97;41.10;47230.78;5056433;28;20601;-85
2023/08/08 10:22:47;;;;;;;2.20;2.00;;;;;;;-141.97;41.34;47569.06;5053736;28;20177;-87
2023/08/08 10:25:27;;;;;;;1.87;1.67;;;;;;;-141.97;40.26;47590.19;5056250;28;20177;-88
2023/08/08 10:28:04;;;;;;;2.15;1.95;;;;;;;-141.97;39.16;47376.84;5040644;28;20196;-87
2023/08/08 10:30:29;;;;;;;3.88;1.90;;;;;;;-141.97;40.17;47398.00;5046094;28;20771;-85
2023/08/08 10:32:59;;;;;;;3.13;1.80;;;;;;;-141.97;40.34;47388.38;5017356;28;20232;-82
2023/08/08 10:35:36;;;;;;;2.60;2.20;;;;;;;-141.97;40.60;47326.88;5027430;28;20681;-82
2023/08/08 10:38:08;;;;;;;4.20;2.70;;;;;;;-141.97;39.95;47371.09;5007988;28;20232;-82
2023/08/08 10:40:34;;;;;;;5.05;2.35;;;;;;;-141.97;39.37;47367.25;5068939;28;20195;-82
2023/08/08 10:42:59;;;;;;;3.45;1.92;;;;;;;-141.97;38.80;47299.97;5034357;28;20177;-83
2023/08/08 10:45:30;;;;;;;6.35;3.55;;;;;;;-141.97;39.63;47386.47;5032545;28;20247;-82
2023/08/08 10:47:55;;;;;;;4.20;2.50;;;;;;;-141.97;39.10;47530.59;5032170;28;20185;-85
2023/08/08 10:50:24;;;;;;;4.57;2.30;;;;;;;-141.97;39.60;47332.66;5033354;28;20223;-83
2023/08/08 10:52:52;;;;;;;5.60;3.30;;;;;;;-141.97;39.19;47396.06;5069142;28;20179;-84
2023/08/08 10:55:26;;;;;;;3.95;3.00;;;;;;;-141.97;38.22;47388.38;5052337;28;20291;-80
2023/08/08 10:57:57;;;;;;;2.78;2.13;;;;;;;-141.97;38.42;47348.03;5056441;28;20185;-82
2023/08/08 11:00:25;;;;;;;2.92;2.40;;;;;;;-141.97;38.51;47378.78;5057017;28;20648;-82
2023/08/08 11:02:51;;;;;;;3.90;2.30;;;;;;;-141.97;38.80;47330.72;5054327;28;20689;-82
2023/08/08 11:05:17;;;;;;;4.15;2.70;;;;;;;-141.97;39.32;47342.25;5054481;28;20212;-83
2023/08/08 11:07:42;;;;;;;3.95;2.03;;;;;;;-141.97;38.47;47378.78;5058803;28;20188;-83
2023/08/08 11:10:09;;;;;;;2.78;2.47;;;;;;;-141.97;37.21;47378.78;5065174;28;20196;-85
2023/08/08 11:12:34;;;;;;;3.95;2.55;;;;;;;-141.97;37.14;47357.63;5069972;28;20177;-85